Main page
METAR-TAF:

METAR-TAF

Airports :

Gloucestershire Airport

Gloucester, England

latitude: 51-54N, longitude: 002-10W, elevation: 29 m

Current weather observation

The report was made 28 minutes ago, at 16:20 UTC
Wind 2 kt from the East
Temperature 17°C
Humidity 39%
Pressure 1016 hPa
Visibility 10 km or more
Few clouds at a height of 4500 ft, Towering cumulus.

METAR: EGBJ 201620Z 09002KT 9999 FEW045TCU 17/03 Q1016

Time: 17:48 (16:48 UTC)

Forecast

The report was made 2 hours and 53 minutes ago, at 13:55 UTC
Forecast valid from 20 at 15 UTC to 20 at 19 UTC
Wind 3 kt from variable directions
Visibility 10 km or more
Few clouds at a height of 4500 ft

TAF: EGBJ 201355Z 2015/2019 VRB03KT 9999 FEW045

Weather observations and forecasts of more than 4000 airports (METAR and TAF reports).

The available stations are represented by yellow and red dots on the map.

Hover mouse over dot to see the name of the station.

Then click to see weather observations and forecasts.

To change the map : click on the green buttons with a black cross to zoom in, on the green button with a dash to zoom out, or on the green arrows for adjacent maps.


METAR-TAF: